Hays Regional Airport Hays US
ICAO: KHYS
IATA: HYS
Category: Medium
Scheduled Services: No

Elevation: 1999 ft
TransAlt. 18000 ft.

Airport Communications:
AWOS 3:125.525
KANSAS CITY CNTR:124.4
WICHITA RDO:122.3
CTAF/UNICOM:122.8

KHYS Zoom In..

Runways:

(A) RW 04 length 4501 ft width 75 ft
---- / hdg 40

(B) RW 16 length 6501 ft width 100 ft
---- / hdg 159

(C) RW 22 length 4501 ft width 75 ft
---- / hdg 220

(D) RW 34 length 6501 ft width 100 ft
ILS 111.50 / hdg 339

Location; KHYS
Day. 19 / Time. 20.56 Zulu
* Altimeter: 30.33
* Temperature: 16° c. 60.8°f.
* Wind from: 080° Speed 11 kn.
Dewpoint: -03° c.
Visibility: 10 Statute Miles.
Clouds: Clear (automated report).

KHYS 192056Z AUTO 08011KT 10SM CLR 16/M03 A3033 RMK AO2 SLP281 T01561033 58033


Wind From 080°
Speed 11 kn.

  YouTube Music Video
 
jpsmedia.com for Web Design  worldairports.se 2018   terms of use